sensor_id;sensor_type;location;lat;lon;timestamp;P1;durP1;ratioP1;P2;durP2;ratioP2
44046;SDS011;29713;-33.888;151.150;2023-08-07T00:02:15;1.75;;;0.60;;
44046;SDS011;29713;-33.888;151.150;2023-08-07T00:04:42;1.75;;;0.60;;
44046;SDS011;29713;-33.888;151.150;2023-08-07T00:07:10;0.73;;;0.30;;
44046;SDS011;29713;-33.888;151.150;2023-08-07T00:09:40;2.50;;;0.80;;
44046;SDS011;29713;-33.888;151.150;2023-08-07T00:12:07;1.42;;;0.40;;
44046;SDS011;29713;-33.888;151.150;2023-08-07T00:14:35;1.77;;;0.63;;
44046;SDS011;29713;-33.888;151.150;2023-08-07T00:17:02;2.67;;;0.80;;
44046;SDS011;29713;-33.888;151.150;2023-08-07T00:19:31;0.82;;;0.50;;
44046;SDS011;29713;-33.888;151.150;2023-08-07T00:21:58;1.58;;;0.38;;
44046;SDS011;29713;-33.888;151.150;2023-08-07T00:24:25;0.95;;;0.50;;
44046;SDS011;29713;-33.888;151.150;2023-08-07T00:26:53;2.15;;;0.40;;
44046;SDS011;29713;-33.888;151.150;2023-08-07T00:29:20;2.13;;;0.40;;
44046;SDS011;29713;-33.888;151.150;2023-08-07T00:31:47;0.75;;;0.30;;
44046;SDS011;29713;-33.888;151.150;2023-08-07T00:34:15;0.52;;;0.20;;
44046;SDS011;29713;-33.888;151.150;2023-08-07T00:36:42;2.65;;;0.57;;
44046;SDS011;29713;-33.888;151.150;2023-08-07T00:39:10;1.73;;;0.52;;
44046;SDS011;29713;-33.888;151.150;2023-08-07T00:41:37;1.73;;;0.50;;
44046;SDS011;29713;-33.888;151.150;2023-08-07T00:44:04;1.70;;;0.60;;
44046;SDS011;29713;-33.888;151.150;2023-08-07T00:46:32;1.40;;;0.40;;
44046;SDS011;29713;-33.888;151.150;2023-08-07T00:49:00;0.80;;;0.30;;
44046;SDS011;29713;-33.888;151.150;2023-08-07T00:51:28;1.70;;;0.80;;
44046;SDS011;29713;-33.888;151.150;2023-08-07T00:53:56;2.72;;;0.80;;
44046;SDS011;29713;-33.888;151.150;2023-08-07T00:56:24;0.88;;;0.40;;
44046;SDS011;29713;-33.888;151.150;2023-08-07T00:58:53;3.63;;;0.57;;
44046;SDS011;29713;-33.888;151.150;2023-08-07T01:01:21;2.22;;;0.60;;
44046;SDS011;29713;-33.888;151.150;2023-08-07T01:03:48;3.28;;;0.75;;
44046;SDS011;29713;-33.888;151.150;2023-08-07T01:06:16;1.95;;;0.80;;
44046;SDS011;29713;-33.888;151.150;2023-08-07T01:08:44;2.72;;;0.63;;
44046;SDS011;29713;-33.888;151.150;2023-08-07T01:14:03;3.08;;;0.80;;
44046;SDS011;29713;-33.888;151.150;2023-08-07T01:17:19;2.30;;;0.70;;
44046;SDS011;29713;-33.888;151.150;2023-08-07T01:19:29;3.25;;;0.75;;
44046;SDS011;29713;-33.888;151.150;2023-08-07T01:22:04;1.02;;;0.60;;
44046;SDS011;29713;-33.888;151.150;2023-08-07T01:24:32;2.78;;;0.65;;
44046;SDS011;29713;-33.888;151.150;2023-08-07T01:27:24;0.75;;;0.40;;
44046;SDS011;29713;-33.888;151.150;2023-08-07T01:35:44;2.00;;;0.65;;
44046;SDS011;29713;-33.888;151.150;2023-08-07T01:38:15;1.48;;;0.65;;
44046;SDS011;29713;-33.888;151.150;2023-08-07T01:40:43;0.85;;;0.30;;
44046;SDS011;29713;-33.888;151.150;2023-08-07T01:43:12;3.03;;;0.50;;
44046;SDS011;29713;-33.888;151.150;2023-08-07T01:45:40;0.60;;;0.40;;
44046;SDS011;29713;-33.888;151.150;2023-08-07T01:48:07;1.55;;;0.43;;
44046;SDS011;29713;-33.888;151.150;2023-08-07T01:50:34;2.65;;;0.70;;
44046;SDS011;29713;-33.888;151.150;2023-08-07T01:53:02;2.47;;;0.70;;
44046;SDS011;29713;-33.888;151.150;2023-08-07T01:55:29;1.75;;;0.50;;
44046;SDS011;29713;-33.888;151.150;2023-08-07T01:57:56;1.55;;;0.50;;
44046;SDS011;29713;-33.888;151.150;2023-08-07T02:00:24;1.80;;;0.63;;
44046;SDS011;29713;-33.888;151.150;2023-08-07T02:02:51;0.70;;;0.40;;
44046;SDS011;29713;-33.888;151.150;2023-08-07T02:05:18;1.45;;;0.60;;
44046;SDS011;29713;-33.888;151.150;2023-08-07T02:07:46;2.55;;;0.40;;
44046;SDS011;29713;-33.888;151.150;2023-08-07T02:10:13;1.88;;;0.68;;
44046;SDS011;29713;-33.888;151.150;2023-08-07T02:12:41;1.27;;;0.55;;
44046;SDS011;29713;-33.888;151.150;2023-08-07T02:15:08;0.90;;;0.60;;
44046;SDS011;29713;-33.888;151.150;2023-08-07T02:17:36;1.58;;;0.60;;
44046;SDS011;29713;-33.888;151.150;2023-08-07T02:20:06;2.45;;;0.50;;
44046;SDS011;29713;-33.888;151.150;2023-08-07T02:22:34;2.28;;;0.70;;
44046;SDS011;29713;-33.888;151.150;2023-08-07T02:25:01;3.05;;;0.57;;
44046;SDS011;29713;-33.888;151.150;2023-08-07T02:27:29;1.17;;;0.60;;
44046;SDS011;29713;-33.888;151.150;2023-08-07T02:29:56;1.95;;;0.70;;
44046;SDS011;29713;-33.888;151.150;2023-08-07T02:32:24;1.25;;;0.55;;
44046;SDS011;29713;-33.888;151.150;2023-08-07T02:34:51;2.22;;;0.52;;
44046;SDS011;29713;-33.888;151.150;2023-08-07T02:37:18;0.40;;;0.30;;
44046;SDS011;29713;-33.888;151.150;2023-08-07T02:39:46;2.47;;;0.50;;
44046;SDS011;29713;-33.888;151.150;2023-08-07T02:42:14;1.75;;;0.50;;
44046;SDS011;29713;-33.888;151.150;2023-08-07T02:44:41;0.43;;;0.43;;
44046;SDS011;29713;-33.888;151.150;2023-08-07T02:47:08;1.13;;;0.60;;
44046;SDS011;29713;-33.888;151.150;2023-08-07T02:49:36;0.80;;;0.40;;
44046;SDS011;29713;-33.888;151.150;2023-08-07T02:52:03;0.90;;;0.40;;
44046;SDS011;29713;-33.888;151.150;2023-08-07T02:54:30;1.08;;;0.30;;
44046;SDS011;29713;-33.888;151.150;2023-08-07T02:56:58;1.00;;;0.20;;
44046;SDS011;29713;-33.888;151.150;2023-08-07T02:59:25;0.68;;;0.30;;
44046;SDS011;29713;-33.888;151.150;2023-08-07T03:01:52;1.13;;;0.40;;
44046;SDS011;29713;-33.888;151.150;2023-08-07T03:04:20;0.35;;;0.35;;
44046;SDS011;29713;-33.888;151.150;2023-08-07T03:06:47;0.20;;;0.20;;
44046;SDS011;29713;-33.888;151.150;2023-08-07T03:09:14;1.67;;;0.47;;
44046;SDS011;29713;-33.888;151.150;2023-08-07T03:11:42;0.60;;;0.32;;
44046;SDS011;29713;-33.888;151.150;2023-08-07T03:14:09;0.70;;;0.30;;
44046;SDS011;29713;-33.888;151.150;2023-08-07T03:16:36;0.90;;;0.32;;
44046;SDS011;29713;-33.888;151.150;2023-08-07T03:19:03;0.35;;;0.35;;
44046;SDS011;29713;-33.888;151.150;2023-08-07T03:21:31;0.40;;;0.17;;
44046;SDS011;29713;-33.888;151.150;2023-08-07T03:23:58;1.23;;;0.38;;
44046;SDS011;29713;-33.888;151.150;2023-08-07T03:26:25;0.30;;;0.20;;
44046;SDS011;29713;-33.888;151.150;2023-08-07T03:28:53;0.28;;;0.28;;
44046;SDS011;29713;-33.888;151.150;2023-08-07T03:31:20;0.32;;;0.20;;
44046;SDS011;29713;-33.888;151.150;2023-08-07T03:33:47;0.38;;;0.17;;
44046;SDS011;29713;-33.888;151.150;2023-08-07T03:36:15;0.10;;;0.10;;
44046;SDS011;29713;-33.888;151.150;2023-08-07T03:38:42;0.73;;;0.25;;
44046;SDS011;29713;-33.888;151.150;2023-08-07T03:41:09;1.20;;;0.20;;
44046;SDS011;29713;-33.888;151.150;2023-08-07T03:43:37;0.40;;;0.15;;
44046;SDS011;29713;-33.888;151.150;2023-08-07T03:46:04;0.35;;;0.20;;
44046;SDS011;29713;-33.888;151.150;2023-08-07T03:48:31;0.20;;;0.20;;
44046;SDS011;29713;-33.888;151.150;2023-08-07T03:51:02;0.32;;;0.32;;
44046;SDS011;29713;-33.888;151.150;2023-08-07T03:53:36;1.17;;;0.40;;
44046;SDS011;29713;-33.888;151.150;2023-08-07T03:56:04;0.93;;;0.40;;
44046;SDS011;29713;-33.888;151.150;2023-08-07T03:58:31;0.65;;;0.30;;
44046;SDS011;29713;-33.888;151.150;2023-08-07T04:00:58;1.15;;;0.40;;
44046;SDS011;29713;-33.888;151.150;2023-08-07T04:03:25;1.30;;;0.50;;
44046;SDS011;29713;-33.888;151.150;2023-08-07T04:05:53;0.88;;;0.50;;
44046;SDS011;29713;-33.888;151.150;2023-08-07T04:08:21;2.05;;;0.30;;
44046;SDS011;29713;-33.888;151.150;2023-08-07T04:10:59;0.57;;;0.43;;
44046;SDS011;29713;-33.888;151.150;2023-08-07T04:13:30;0.40;;;0.30;;
44046;SDS011;29713;-33.888;151.150;2023-08-07T04:15:57;0.43;;;0.30;;
44046;SDS011;29713;-33.888;151.150;2023-08-07T04:18:27;2.03;;;0.75;;
44046;SDS011;29713;-33.888;151.150;2023-08-07T04:20:55;1.10;;;0.50;;
44046;SDS011;29713;-33.888;151.150;2023-08-07T04:23:23;0.40;;;0.20;;
44046;SDS011;29713;-33.888;151.150;2023-08-07T04:25:51;0.90;;;0.45;;
44046;SDS011;29713;-33.888;151.150;2023-08-07T04:28:19;0.70;;;0.30;;
44046;SDS011;29713;-33.888;151.150;2023-08-07T04:30:50;1.98;;;0.43;;
44046;SDS011;29713;-33.888;151.150;2023-08-07T04:33:18;0.80;;;0.30;;
44046;SDS011;29713;-33.888;151.150;2023-08-07T04:35:46;1.42;;;0.50;;
44046;SDS011;29713;-33.888;151.150;2023-08-07T04:38:14;1.40;;;0.40;;
44046;SDS011;29713;-33.888;151.150;2023-08-07T04:40:46;4.07;;;0.80;;
44046;SDS011;29713;-33.888;151.150;2023-08-07T04:43:14;2.40;;;0.60;;
44046;SDS011;29713;-33.888;151.150;2023-08-07T04:45:42;1.20;;;0.40;;
44046;SDS011;29713;-33.888;151.150;2023-08-07T04:48:13;1.45;;;0.40;;
44046;SDS011;29713;-33.888;151.150;2023-08-07T04:50:41;1.17;;;0.60;;
44046;SDS011;29713;-33.888;151.150;2023-08-07T04:53:08;1.23;;;0.40;;
44046;SDS011;29713;-33.888;151.150;2023-08-07T04:55:35;1.40;;;0.40;;
44046;SDS011;29713;-33.888;151.150;2023-08-07T04:58:03;1.27;;;0.43;;
44046;SDS011;29713;-33.888;151.150;2023-08-07T05:00:31;1.85;;;0.57;;
44046;SDS011;29713;-33.888;151.150;2023-08-07T05:02:58;0.85;;;0.32;;
44046;SDS011;29713;-33.888;151.150;2023-08-07T05:05:26;1.80;;;0.40;;
44046;SDS011;29713;-33.888;151.150;2023-08-07T05:07:54;0.88;;;0.20;;
44046;SDS011;29713;-33.888;151.150;2023-08-07T05:10:22;1.17;;;0.25;;
44046;SDS011;29713;-33.888;151.150;2023-08-07T05:12:49;2.95;;;0.52;;
44046;SDS011;29713;-33.888;151.150;2023-08-07T05:15:25;1.00;;;0.40;;
44046;SDS011;29713;-33.888;151.150;2023-08-07T05:17:54;1.42;;;0.43;;
44046;SDS011;29713;-33.888;151.150;2023-08-07T05:20:21;1.85;;;0.30;;
44046;SDS011;29713;-33.888;151.150;2023-08-07T05:22:49;1.17;;;0.45;;
44046;SDS011;29713;-33.888;151.150;2023-08-07T05:25:16;1.17;;;0.30;;
44046;SDS011;29713;-33.888;151.150;2023-08-07T05:27:44;1.20;;;0.30;;
44046;SDS011;29713;-33.888;151.150;2023-08-07T05:30:12;0.73;;;0.50;;
44046;SDS011;29713;-33.888;151.150;2023-08-07T05:32:40;0.20;;;0.20;;
44046;SDS011;29713;-33.888;151.150;2023-08-07T05:35:08;0.55;;;0.20;;
44046;SDS011;29713;-33.888;151.150;2023-08-07T05:37:36;1.17;;;0.30;;
44046;SDS011;29713;-33.888;151.150;2023-08-07T05:40:03;0.32;;;0.20;;
44046;SDS011;29713;-33.888;151.150;2023-08-07T05:42:32;1.08;;;0.30;;
44046;SDS011;29713;-33.888;151.150;2023-08-07T05:45:00;0.65;;;0.32;;
44046;SDS011;29713;-33.888;151.150;2023-08-07T05:47:28;1.45;;;0.32;;
44046;SDS011;29713;-33.888;151.150;2023-08-07T05:49:56;0.75;;;0.30;;
44046;SDS011;29713;-33.888;151.150;2023-08-07T05:52:23;1.20;;;0.43;;
44046;SDS011;29713;-33.888;151.150;2023-08-07T05:54:50;1.70;;;0.80;;
44046;SDS011;29713;-33.888;151.150;2023-08-07T05:57:18;1.10;;;0.50;;
44046;SDS011;29713;-33.888;151.150;2023-08-07T05:59:45;1.80;;;0.60;;
44046;SDS011;29713;-33.888;151.150;2023-08-07T06:02:13;1.60;;;0.43;;
44046;SDS011;29713;-33.888;151.150;2023-08-07T06:04:40;1.83;;;0.60;;
44046;SDS011;29713;-33.888;151.150;2023-08-07T06:07:07;1.95;;;0.50;;
44046;SDS011;29713;-33.888;151.150;2023-08-07T06:09:35;1.38;;;0.45;;
44046;SDS011;29713;-33.888;151.150;2023-08-07T06:12:02;0.70;;;0.38;;
44046;SDS011;29713;-33.888;151.150;2023-08-07T06:14:30;1.42;;;0.50;;
44046;SDS011;29713;-33.888;151.150;2023-08-07T06:16:57;0.90;;;0.40;;
44046;SDS011;29713;-33.888;151.150;2023-08-07T06:19:26;0.70;;;0.40;;
44046;SDS011;29713;-33.888;151.150;2023-08-07T06:21:54;2.47;;;0.63;;
44046;SDS011;29713;-33.888;151.150;2023-08-07T06:24:22;0.73;;;0.50;;
44046;SDS011;29713;-33.888;151.150;2023-08-07T06:26:50;2.65;;;0.70;;
44046;SDS011;29713;-33.888;151.150;2023-08-07T06:29:18;1.05;;;0.57;;
44046;SDS011;29713;-33.888;151.150;2023-08-07T06:31:45;2.60;;;0.65;;
44046;SDS011;29713;-33.888;151.150;2023-08-07T06:34:12;0.70;;;0.38;;
44046;SDS011;29713;-33.888;151.150;2023-08-07T06:36:40;0.35;;;0.30;;
44046;SDS011;29713;-33.888;151.150;2023-08-07T06:39:07;0.82;;;0.40;;
44046;SDS011;29713;-33.888;151.150;2023-08-07T06:41:35;1.38;;;0.40;;
44046;SDS011;29713;-33.888;151.150;2023-08-07T06:44:03;0.43;;;0.30;;
44046;SDS011;29713;-33.888;151.150;2023-08-07T06:46:30;1.20;;;0.30;;
44046;SDS011;29713;-33.888;151.150;2023-08-07T06:48:58;1.75;;;0.47;;
44046;SDS011;29713;-33.888;151.150;2023-08-07T06:51:25;1.13;;;0.50;;
44046;SDS011;29713;-33.888;151.150;2023-08-07T06:53:53;1.65;;;0.60;;
44046;SDS011;29713;-33.888;151.150;2023-08-07T06:56:20;1.10;;;0.68;;
44046;SDS011;29713;-33.888;151.150;2023-08-07T06:58:47;2.13;;;0.87;;
44046;SDS011;29713;-33.888;151.150;2023-08-07T07:01:15;1.73;;;0.70;;
44046;SDS011;29713;-33.888;151.150;2023-08-07T07:03:42;1.20;;;0.52;;
44046;SDS011;29713;-33.888;151.150;2023-08-07T07:06:12;3.25;;;0.95;;
44046;SDS011;29713;-33.888;151.150;2023-08-07T07:08:40;1.67;;;0.80;;
44046;SDS011;29713;-33.888;151.150;2023-08-07T07:11:07;1.10;;;0.57;;
44046;SDS011;29713;-33.888;151.150;2023-08-07T07:13:35;1.00;;;0.50;;
44046;SDS011;29713;-33.888;151.150;2023-08-07T07:16:02;2.15;;;1.15;;
44046;SDS011;29713;-33.888;151.150;2023-08-07T07:18:29;1.83;;;0.98;;
44046;SDS011;29713;-33.888;151.150;2023-08-07T07:20:57;1.35;;;0.77;;
44046;SDS011;29713;-33.888;151.150;2023-08-07T07:23:26;1.33;;;0.70;;
44046;SDS011;29713;-33.888;151.150;2023-08-07T07:25:54;2.03;;;0.70;;
44046;SDS011;29713;-33.888;151.150;2023-08-07T07:28:22;0.97;;;0.63;;
44046;SDS011;29713;-33.888;151.150;2023-08-07T07:30:50;1.50;;;0.60;;
44046;SDS011;29713;-33.888;151.150;2023-08-07T07:33:17;0.70;;;0.57;;
44046;SDS011;29713;-33.888;151.150;2023-08-07T07:35:45;1.02;;;0.70;;
44046;SDS011;29713;-33.888;151.150;2023-08-07T07:38:12;1.17;;;0.80;;
44046;SDS011;29713;-33.888;151.150;2023-08-07T07:40:41;1.10;;;0.70;;
44046;SDS011;29713;-33.888;151.150;2023-08-07T07:43:08;1.63;;;0.83;;
44046;SDS011;29713;-33.888;151.150;2023-08-07T07:45:36;1.23;;;1.10;;
44046;SDS011;29713;-33.888;151.150;2023-08-07T07:48:03;2.00;;;0.87;;
44046;SDS011;29713;-33.888;151.150;2023-08-07T07:50:32;2.30;;;0.93;;
44046;SDS011;29713;-33.888;151.150;2023-08-07T07:52:59;1.30;;;0.90;;
44046;SDS011;29713;-33.888;151.150;2023-08-07T07:55:26;2.77;;;1.07;;
44046;SDS011;29713;-33.888;151.150;2023-08-07T07:57:54;1.30;;;0.90;;
44046;SDS011;29713;-33.888;151.150;2023-08-07T08:00:22;3.40;;;0.90;;
44046;SDS011;29713;-33.888;151.150;2023-08-07T08:02:52;2.90;;;1.27;;
44046;SDS011;29713;-33.888;151.150;2023-08-07T08:05:19;2.40;;;1.40;;
44046;SDS011;29713;-33.888;151.150;2023-08-07T08:07:47;2.93;;;1.60;;
44046;SDS011;29713;-33.888;151.150;2023-08-07T08:10:14;2.90;;;1.13;;
44046;SDS011;29713;-33.888;151.150;2023-08-07T08:12:41;3.77;;;1.43;;
44046;SDS011;29713;-33.888;151.150;2023-08-07T08:15:09;2.83;;;1.17;;
44046;SDS011;29713;-33.888;151.150;2023-08-07T08:17:36;3.07;;;1.50;;
44046;SDS011;29713;-33.888;151.150;2023-08-07T08:20:05;2.83;;;1.27;;
44046;SDS011;29713;-33.888;151.150;2023-08-07T08:22:33;1.33;;;1.00;;
44046;SDS011;29713;-33.888;151.150;2023-08-07T08:25:00;3.27;;;1.63;;
44046;SDS011;29713;-33.888;151.150;2023-08-07T08:27:30;1.93;;;1.10;;
44046;SDS011;29713;-33.888;151.150;2023-08-07T08:29:57;1.80;;;0.90;;
44046;SDS011;29713;-33.888;151.150;2023-08-07T08:32:24;1.67;;;1.10;;
44046;SDS011;29713;-33.888;151.150;2023-08-07T08:34:52;5.13;;;1.00;;
44046;SDS011;29713;-33.888;151.150;2023-08-07T08:37:19;1.10;;;1.00;;
44046;SDS011;29713;-33.888;151.150;2023-08-07T08:39:47;1.80;;;1.30;;
44046;SDS011;29713;-33.888;151.150;2023-08-07T08:42:14;6.63;;;1.93;;
44046;SDS011;29713;-33.888;151.150;2023-08-07T08:44:46;5.33;;;2.10;;
44046;SDS011;29713;-33.888;151.150;2023-08-07T08:47:18;4.23;;;2.33;;
44046;SDS011;29713;-33.888;151.150;2023-08-07T08:49:53;3.27;;;2.20;;
44046;SDS011;29713;-33.888;151.150;2023-08-07T08:52:30;3.30;;;2.00;;
44046;SDS011;29713;-33.888;151.150;2023-08-07T08:54:58;3.17;;;2.00;;
44046;SDS011;29713;-33.888;151.150;2023-08-07T08:57:27;4.70;;;1.80;;
44046;SDS011;29713;-33.888;151.150;2023-08-07T08:59:56;4.67;;;1.73;;
44046;SDS011;29713;-33.888;151.150;2023-08-07T09:02:24;3.30;;;2.00;;
44046;SDS011;29713;-33.888;151.150;2023-08-07T09:04:52;6.73;;;2.07;;
44046;SDS011;29713;-33.888;151.150;2023-08-07T09:07:19;2.77;;;1.90;;
44046;SDS011;29713;-33.888;151.150;2023-08-07T09:09:48;4.60;;;2.60;;
44046;SDS011;29713;-33.888;151.150;2023-08-07T09:12:19;4.50;;;2.47;;
44046;SDS011;29713;-33.888;151.150;2023-08-07T09:14:49;3.23;;;2.13;;
44046;SDS011;29713;-33.888;151.150;2023-08-07T09:17:21;5.90;;;2.17;;
44046;SDS011;29713;-33.888;151.150;2023-08-07T09:19:53;4.80;;;2.63;;
44046;SDS011;29713;-33.888;151.150;2023-08-07T09:22:20;4.60;;;2.40;;
44046;SDS011;29713;-33.888;151.150;2023-08-07T09:24:47;4.73;;;2.27;;
44046;SDS011;29713;-33.888;151.150;2023-08-07T09:27:15;4.97;;;2.60;;
44046;SDS011;29713;-33.888;151.150;2023-08-07T09:29:43;5.17;;;2.40;;
44046;SDS011;29713;-33.888;151.150;2023-08-07T09:32:12;7.47;;;3.13;;
44046;SDS011;29713;-33.888;151.150;2023-08-07T09:34:41;4.10;;;2.50;;
44046;SDS011;29713;-33.888;151.150;2023-08-07T09:37:09;4.67;;;2.63;;
44046;SDS011;29713;-33.888;151.150;2023-08-07T09:39:36;5.47;;;3.20;;
44046;SDS011;29713;-33.888;151.150;2023-08-07T09:42:04;5.77;;;2.70;;
44046;SDS011;29713;-33.888;151.150;2023-08-07T09:44:38;4.20;;;2.83;;
44046;SDS011;29713;-33.888;151.150;2023-08-07T09:47:16;4.37;;;2.73;;
44046;SDS011;29713;-33.888;151.150;2023-08-07T09:49:45;7.70;;;3.00;;
44046;SDS011;29713;-33.888;151.150;2023-08-07T09:52:13;5.40;;;3.40;;
44046;SDS011;29713;-33.888;151.150;2023-08-07T09:54:43;4.90;;;3.37;;
44046;SDS011;29713;-33.888;151.150;2023-08-07T09:57:11;7.37;;;3.20;;
44046;SDS011;29713;-33.888;151.150;2023-08-07T09:59:39;5.03;;;3.47;;
44046;SDS011;29713;-33.888;151.150;2023-08-07T10:02:07;4.67;;;3.10;;
44046;SDS011;29713;-33.888;151.150;2023-08-07T10:04:36;5.50;;;3.43;;
44046;SDS011;29713;-33.888;151.150;2023-08-07T10:07:04;5.17;;;3.07;;
44046;SDS011;29713;-33.888;151.150;2023-08-07T10:09:32;6.70;;;3.30;;
44046;SDS011;29713;-33.888;151.150;2023-08-07T10:11:59;6.63;;;3.30;;
44046;SDS011;29713;-33.888;151.150;2023-08-07T10:14:27;4.87;;;3.13;;
44046;SDS011;29713;-33.888;151.150;2023-08-07T10:16:56;4.93;;;3.17;;
44046;SDS011;29713;-33.888;151.150;2023-08-07T10:19:23;6.37;;;3.50;;
44046;SDS011;29713;-33.888;151.150;2023-08-07T10:21:51;7.97;;;3.23;;
44046;SDS011;29713;-33.888;151.150;2023-08-07T10:24:19;7.13;;;3.83;;
44046;SDS011;29713;-33.888;151.150;2023-08-07T10:26:48;6.10;;;3.57;;
44046;SDS011;29713;-33.888;151.150;2023-08-07T10:29:17;8.30;;;3.97;;
44046;SDS011;29713;-33.888;151.150;2023-08-07T10:31:46;7.13;;;3.87;;
44046;SDS011;29713;-33.888;151.150;2023-08-07T10:34:15;5.93;;;3.73;;
44046;SDS011;29713;-33.888;151.150;2023-08-07T10:36:43;6.60;;;4.20;;
44046;SDS011;29713;-33.888;151.150;2023-08-07T10:39:12;7.30;;;4.20;;
44046;SDS011;29713;-33.888;151.150;2023-08-07T10:41:48;6.77;;;3.87;;
44046;SDS011;29713;-33.888;151.150;2023-08-07T10:44:21;5.73;;;3.40;;
44046;SDS011;29713;-33.888;151.150;2023-08-07T10:52:14;8.17;;;4.00;;
44046;SDS011;29713;-33.888;151.150;2023-08-07T10:54:45;7.43;;;3.60;;
44046;SDS011;29713;-33.888;151.150;2023-08-07T10:57:13;6.33;;;4.10;;
44046;SDS011;29713;-33.888;151.150;2023-08-07T10:59:51;6.80;;;3.87;;
44046;SDS011;29713;-33.888;151.150;2023-08-07T11:02:30;7.20;;;3.43;;
44046;SDS011;29713;-33.888;151.150;2023-08-07T11:04:58;8.00;;;3.70;;
44046;SDS011;29713;-33.888;151.150;2023-08-07T11:07:27;5.23;;;3.47;;
44046;SDS011;29713;-33.888;151.150;2023-08-07T11:09:57;7.37;;;3.53;;
44046;SDS011;29713;-33.888;151.150;2023-08-07T11:12:26;4.70;;;3.17;;
44046;SDS011;29713;-33.888;151.150;2023-08-07T11:14:54;4.13;;;2.57;;
44046;SDS011;29713;-33.888;151.150;2023-08-07T11:17:25;5.17;;;2.90;;
44046;SDS011;29713;-33.888;151.150;2023-08-07T11:19:54;4.33;;;3.00;;
44046;SDS011;29713;-33.888;151.150;2023-08-07T11:22:22;4.80;;;2.80;;
44046;SDS011;29713;-33.888;151.150;2023-08-07T11:24:53;6.90;;;2.90;;
44046;SDS011;29713;-33.888;151.150;2023-08-07T11:27:21;4.00;;;2.70;;
44046;SDS011;29713;-33.888;151.150;2023-08-07T11:29:48;5.43;;;2.70;;
44046;SDS011;29713;-33.888;151.150;2023-08-07T11:32:16;5.03;;;3.20;;
44046;SDS011;29713;-33.888;151.150;2023-08-07T11:34:50;6.40;;;2.90;;
44046;SDS011;29713;-33.888;151.150;2023-08-07T11:37:18;6.53;;;2.93;;
44046;SDS011;29713;-33.888;151.150;2023-08-07T11:39:46;5.37;;;3.17;;
44046;SDS011;29713;-33.888;151.150;2023-08-07T11:42:13;6.80;;;2.90;;
44046;SDS011;29713;-33.888;151.150;2023-08-07T11:44:41;7.03;;;3.37;;
44046;SDS011;29713;-33.888;151.150;2023-08-07T11:47:09;9.20;;;3.53;;
44046;SDS011;29713;-33.888;151.150;2023-08-07T11:49:37;6.10;;;3.23;;
44046;SDS011;29713;-33.888;151.150;2023-08-07T11:52:05;5.53;;;3.00;;
44046;SDS011;29713;-33.888;151.150;2023-08-07T11:54:32;5.67;;;3.23;;
44046;SDS011;29713;-33.888;151.150;2023-08-07T11:57:00;6.27;;;2.90;;
44046;SDS011;29713;-33.888;151.150;2023-08-07T11:59:27;5.97;;;3.00;;
44046;SDS011;29713;-33.888;151.150;2023-08-07T12:01:55;6.50;;;3.10;;
44046;SDS011;29713;-33.888;151.150;2023-08-07T12:04:23;6.37;;;3.53;;
44046;SDS011;29713;-33.888;151.150;2023-08-07T12:06:53;4.30;;;2.93;;
44046;SDS011;29713;-33.888;151.150;2023-08-07T12:09:22;4.03;;;2.90;;
44046;SDS011;29713;-33.888;151.150;2023-08-07T12:11:49;6.80;;;3.60;;
44046;SDS011;29713;-33.888;151.150;2023-08-07T12:14:21;5.63;;;3.37;;
44046;SDS011;29713;-33.888;151.150;2023-08-07T12:16:48;6.20;;;2.77;;
44046;SDS011;29713;-33.888;151.150;2023-08-07T12:19:16;7.33;;;3.40;;
44046;SDS011;29713;-33.888;151.150;2023-08-07T12:21:44;4.90;;;3.40;;
44046;SDS011;29713;-33.888;151.150;2023-08-07T12:24:12;6.13;;;3.30;;
44046;SDS011;29713;-33.888;151.150;2023-08-07T12:26:40;9.20;;;3.70;;
44046;SDS011;29713;-33.888;151.150;2023-08-07T12:29:07;5.67;;;3.50;;
44046;SDS011;29713;-33.888;151.150;2023-08-07T12:31:34;6.43;;;3.93;;
44046;SDS011;29713;-33.888;151.150;2023-08-07T12:34:02;9.33;;;4.23;;
44046;SDS011;29713;-33.888;151.150;2023-08-07T12:36:29;5.13;;;3.87;;
44046;SDS011;29713;-33.888;151.150;2023-08-07T12:38:56;6.57;;;3.67;;
44046;SDS011;29713;-33.888;151.150;2023-08-07T12:41:24;9.03;;;4.00;;
44046;SDS011;29713;-33.888;151.150;2023-08-07T12:43:51;6.77;;;3.80;;
44046;SDS011;29713;-33.888;151.150;2023-08-07T12:46:19;7.63;;;3.70;;
44046;SDS011;29713;-33.888;151.150;2023-08-07T12:48:46;5.33;;;3.30;;
44046;SDS011;29713;-33.888;151.150;2023-08-07T12:51:13;6.80;;;3.37;;
44046;SDS011;29713;-33.888;151.150;2023-08-07T12:53:40;5.30;;;3.17;;
44046;SDS011;29713;-33.888;151.150;2023-08-07T12:56:08;7.13;;;3.17;;
44046;SDS011;29713;-33.888;151.150;2023-08-07T12:58:36;4.73;;;2.70;;
44046;SDS011;29713;-33.888;151.150;2023-08-07T13:01:04;4.80;;;2.60;;
44046;SDS011;29713;-33.888;151.150;2023-08-07T13:03:31;7.27;;;3.20;;
44046;SDS011;29713;-33.888;151.150;2023-08-07T13:05:58;6.33;;;3.23;;
44046;SDS011;29713;-33.888;151.150;2023-08-07T13:08:26;7.40;;;3.13;;
44046;SDS011;29713;-33.888;151.150;2023-08-07T13:10:53;6.50;;;3.13;;
44046;SDS011;29713;-33.888;151.150;2023-08-07T13:13:21;4.97;;;3.00;;
44046;SDS011;29713;-33.888;151.150;2023-08-07T13:15:48;7.63;;;3.40;;
44046;SDS011;29713;-33.888;151.150;2023-08-07T13:18:15;8.23;;;3.20;;
44046;SDS011;29713;-33.888;151.150;2023-08-07T13:20:43;6.83;;;3.07;;
44046;SDS011;29713;-33.888;151.150;2023-08-07T13:23:10;5.87;;;3.00;;
44046;SDS011;29713;-33.888;151.150;2023-08-07T13:25:38;8.40;;;3.67;;
44046;SDS011;29713;-33.888;151.150;2023-08-07T13:28:05;4.50;;;2.90;;
44046;SDS011;29713;-33.888;151.150;2023-08-07T13:30:33;6.40;;;3.10;;
44046;SDS011;29713;-33.888;151.150;2023-08-07T13:33:00;7.47;;;3.20;;
44046;SDS011;29713;-33.888;151.150;2023-08-07T13:35:27;4.80;;;2.93;;
44046;SDS011;29713;-33.888;151.150;2023-08-07T13:37:55;3.73;;;2.57;;
44046;SDS011;29713;-33.888;151.150;2023-08-07T13:40:22;4.53;;;3.13;;
44046;SDS011;29713;-33.888;151.150;2023-08-07T13:42:50;7.47;;;3.50;;
44046;SDS011;29713;-33.888;151.150;2023-08-07T13:45:18;3.93;;;2.80;;
44046;SDS011;29713;-33.888;151.150;2023-08-07T13:47:46;5.20;;;2.83;;
44046;SDS011;29713;-33.888;151.150;2023-08-07T13:50:13;5.13;;;3.10;;
44046;SDS011;29713;-33.888;151.150;2023-08-07T13:52:40;5.77;;;2.87;;
44046;SDS011;29713;-33.888;151.150;2023-08-07T13:55:08;5.20;;;2.70;;
44046;SDS011;29713;-33.888;151.150;2023-08-07T13:57:35;4.13;;;2.50;;
44046;SDS011;29713;-33.888;151.150;2023-08-07T14:00:03;3.47;;;2.40;;
44046;SDS011;29713;-33.888;151.150;2023-08-07T14:02:30;5.83;;;2.60;;
44046;SDS011;29713;-33.888;151.150;2023-08-07T14:05:00;3.50;;;2.37;;
44046;SDS011;29713;-33.888;151.150;2023-08-07T14:07:31;3.20;;;2.30;;
44046;SDS011;29713;-33.888;151.150;2023-08-07T14:09:58;5.87;;;2.80;;
44046;SDS011;29713;-33.888;151.150;2023-08-07T14:12:25;4.43;;;2.60;;
44046;SDS011;29713;-33.888;151.150;2023-08-07T14:14:56;3.47;;;2.50;;
44046;SDS011;29713;-33.888;151.150;2023-08-07T14:17:23;4.43;;;2.50;;
44046;SDS011;29713;-33.888;151.150;2023-08-07T14:19:51;3.90;;;2.93;;
44046;SDS011;29713;-33.888;151.150;2023-08-07T14:22:18;6.57;;;3.00;;
44046;SDS011;29713;-33.888;151.150;2023-08-07T14:24:45;5.03;;;2.87;;
44046;SDS011;29713;-33.888;151.150;2023-08-07T14:27:13;6.17;;;2.63;;
44046;SDS011;29713;-33.888;151.150;2023-08-07T14:29:40;7.87;;;3.27;;